Time;durP1;ratioP1;P1;durP2;ratioP2;P2;SDS_P1;SDS_P2;PMS_P1;PMS_P2;Temp;Humidity;BMP_temperature;BMP_pressure;BME280_temperature;BME280_humidity;BME280_pressure;Samples;Min_cycle;Max_cycle;Signal;HPM_P1;HPM_P2
2021/09/24 00:02:23;;;;;;;30.02;10.23;;;;;;;13.48;100.00;101805.97;5181487;28;20080;-72
2021/09/24 00:04:54;;;;;;;28.27;10.18;;;;;;;13.50;100.00;101812.03;5174892;28;20034;-72
2021/09/24 00:07:24;;;;;;;30.02;10.07;;;;;;;13.53;100.00;101811.72;5173849;28;20263;-73
2021/09/24 00:09:55;;;;;;;19.98;9.90;;;;;;;13.57;100.00;101806.84;5161106;28;20034;-72
2021/09/24 00:12:25;;;;;;;22.85;9.70;;;;;;;13.60;100.00;101804.66;5173807;28;20093;-72
2021/09/24 00:14:56;;;;;;;30.70;11.50;;;;;;;13.62;100.00;101799.13;5160812;28;20230;-72
2021/09/24 00:17:26;;;;;;;23.20;11.20;;;;;;;13.66;100.00;101801.34;5177846;28;20257;-72
2021/09/24 00:19:57;;;;;;;27.52;10.98;;;;;;;13.70;100.00;101793.75;5169975;28;20104;-72
2021/09/24 00:22:27;;;;;;;24.60;10.85;;;;;;;13.73;100.00;101793.41;5179062;28;20100;-73
2021/09/24 00:24:58;;;;;;;21.48;10.65;;;;;;;13.74;100.00;101800.50;5169179;28;20282;-72
2021/09/24 00:27:28;;;;;;;30.35;11.00;;;;;;;13.78;100.00;101803.72;5167078;28;20026;-72
2021/09/24 00:29:59;;;;;;;22.67;11.18;;;;;;;13.81;100.00;101798.84;5167571;28;20049;-72
2021/09/24 00:32:29;;;;;;;30.52;12.20;;;;;;;13.85;100.00;101794.78;5168400;28;20029;-73
2021/09/24 00:35:00;;;;;;;22.42;10.60;;;;;;;13.86;100.00;101790.28;5180945;28;20503;-72
2021/09/24 00:37:30;;;;;;;27.65;11.13;;;;;;;13.91;100.00;101793.31;5180836;28;20030;-73
2021/09/24 00:40:01;;;;;;;31.42;11.05;;;;;;;13.95;100.00;101792.78;5164383;28;20025;-72
2021/09/24 00:42:32;;;;;;;25.92;12.05;;;;;;;14.02;100.00;101786.75;5176724;28;20037;-73
2021/09/24 00:45:04;;;;;;;28.20;11.23;;;;;;;14.05;100.00;101799.91;5164313;28;20050;-73
2021/09/24 00:47:35;;;;;;;28.10;11.73;;;;;;;14.05;100.00;101784.56;5171305;28;20072;-73
2021/09/24 00:50:07;;;;;;;32.97;11.82;;;;;;;14.11;100.00;101778.50;5180488;28;20422;-72
2021/09/24 00:52:38;;;;;;;38.75;12.63;;;;;;;14.17;100.00;101785.09;5168159;28;20088;-72
2021/09/24 00:55:10;;;;;;;34.67;14.93;;;;;;;14.23;100.00;101781.72;5166575;28;20022;-71
2021/09/24 00:57:42;;;;;;;38.00;14.52;;;;;;;14.25;100.00;101772.44;5179752;28;20399;-71
2021/09/24 01:00:13;;;;;;;36.33;13.13;;;;;;;14.31;100.00;101773.63;5168100;28;20034;-72
2021/09/24 01:02:44;;;;;;;32.95;13.98;;;;;;;14.36;100.00;101770.44;5176011;28;20101;-72
2021/09/24 01:05:16;;;;;;;37.97;15.20;;;;;;;14.37;100.00;101775.66;5160431;28;20189;-72
2021/09/24 01:07:47;;;;;;;26.75;14.00;;;;;;;14.40;100.00;101778.00;5177235;28;20052;-71
2021/09/24 01:10:18;;;;;;;34.72;14.68;;;;;;;14.40;100.00;101779.84;5169872;28;20033;-71
2021/09/24 01:12:49;;;;;;;37.03;14.98;;;;;;;14.40;100.00;101775.31;5178357;28;20022;-71
2021/09/24 01:15:20;;;;;;;32.58;15.63;;;;;;;14.41;100.00;101768.06;5180281;28;20029;-71
2021/09/24 01:17:51;;;;;;;43.25;16.23;;;;;;;14.42;100.00;101772.47;5161274;28;20027;-71
2021/09/24 01:20:23;;;;;;;40.42;15.85;;;;;;;14.45;100.00;101769.41;5173042;28;20391;-71
2021/09/24 01:23:13;;;;;;;37.15;15.48;;;;;;;14.45;100.00;101764.00;5156140;28;20050;-71
2021/09/24 01:25:44;;;;;;;36.45;15.73;;;;;;;14.48;100.00;101769.09;5166834;28;20116;-71
2021/09/24 01:28:14;;;;;;;41.08;15.80;;;;;;;14.48;100.00;101777.19;5180214;28;20029;-72
2021/09/24 01:30:45;;;;;;;36.92;16.48;;;;;;;14.50;100.00;101772.47;5160861;28;20026;-71
2021/09/24 01:33:15;;;;;;;41.22;16.35;;;;;;;14.50;100.00;101773.31;5172449;28;20021;-71
2021/09/24 01:35:46;;;;;;;41.70;16.58;;;;;;;14.51;100.00;101766.06;5166878;28;20030;-70
2021/09/24 01:38:18;;;;;;;43.67;17.13;;;;;;;14.53;100.00;101765.91;5164971;28;20041;-70
2021/09/24 01:40:48;;;;;;;39.67;17.88;;;;;;;14.57;100.00;101764.56;5167713;28;20021;-71
2021/09/24 01:43:19;;;;;;;40.22;17.67;;;;;;;14.55;100.00;101764.69;5176884;28;20512;-72
2021/09/24 01:45:50;;;;;;;36.85;17.05;;;;;;;14.50;100.00;101761.66;5159539;28;20030;-72
2021/09/24 01:48:20;;;;;;;44.72;17.88;;;;;;;14.48;100.00;101756.44;5163183;28;20026;-72
2021/09/24 01:50:51;;;;;;;44.78;18.58;;;;;;;14.49;100.00;101757.28;5168303;28;20116;-72
2021/09/24 01:53:22;;;;;;;36.55;17.75;;;;;;;14.54;100.00;101756.78;5159401;28;20052;-72
2021/09/24 01:55:52;;;;;;;46.55;20.13;;;;;;;14.53;100.00;101744.28;5159570;28;20022;-72
2021/09/24 01:58:23;;;;;;;40.70;18.70;;;;;;;14.56;100.00;101741.22;5178739;28;20510;-72
2021/09/24 02:00:54;;;;;;;42.60;18.52;;;;;;;14.55;100.00;101748.50;5179134;28;20515;-72
2021/09/24 02:03:25;;;;;;;41.30;17.48;;;;;;;14.59;100.00;101743.59;5169906;28;20472;-73
2021/09/24 02:05:56;;;;;;;41.33;17.98;;;;;;;14.58;100.00;101745.47;5159227;28;20030;-73
2021/09/24 02:08:26;;;;;;;46.13;18.35;;;;;;;14.57;100.00;101746.50;5170197;28;20038;-72
2021/09/24 02:10:57;;;;;;;37.88;18.23;;;;;;;14.59;100.00;101746.31;5179017;28;20437;-72
2021/09/24 02:13:27;;;;;;;42.28;17.60;;;;;;;14.56;100.00;101747.50;5168819;28;20030;-73
2021/09/24 02:15:58;;;;;;;44.22;18.20;;;;;;;14.58;100.00;101742.75;5163167;28;20032;-73
2021/09/24 02:18:29;;;;;;;48.22;17.70;;;;;;;14.57;100.00;101734.84;5179133;28;20022;-73
2021/09/24 02:20:59;;;;;;;42.65;18.70;;;;;;;14.56;100.00;101739.41;5173557;28;20498;-73
2021/09/24 02:23:30;;;;;;;44.15;18.42;;;;;;;14.58;100.00;101734.66;5158807;28;20069;-73
2021/09/24 02:26:01;;;;;;;43.38;18.75;;;;;;;14.59;100.00;101744.44;5158988;28;20383;-73
2021/09/24 02:28:32;;;;;;;46.33;19.17;;;;;;;14.58;100.00;101741.94;5158467;28;20053;-73
2021/09/24 02:31:08;;;;;;;48.30;19.77;;;;;;;14.60;100.00;101735.31;5158728;28;20026;-74
2021/09/24 02:33:40;;;;;;;54.67;20.83;;;;;;;14.61;100.00;101730.75;5161170;28;20030;-73
2021/09/24 02:36:11;;;;;;;49.88;19.45;;;;;;;14.60;100.00;101723.69;5179359;28;20388;-73
2021/09/24 02:38:41;;;;;;;42.88;19.33;;;;;;;14.58;100.00;101728.44;5174761;28;20026;-73
2021/09/24 02:41:12;;;;;;;54.20;20.13;;;;;;;14.59;100.00;101730.09;5164701;28;20042;-73
2021/09/24 02:43:43;;;;;;;51.83;21.02;;;;;;;14.59;100.00;101736.34;5172301;28;20347;-73
2021/09/24 02:46:13;;;;;;;56.50;21.20;;;;;;;14.59;100.00;101732.81;5158908;28;20032;-73
2021/09/24 02:48:44;;;;;;;53.10;20.05;;;;;;;14.63;100.00;101731.44;5158653;28;20054;-73
2021/09/24 02:51:15;;;;;;;46.67;20.55;;;;;;;14.63;100.00;101728.75;5157870;28;20034;-73
2021/09/24 02:53:45;;;;;;;43.65;20.45;;;;;;;14.61;100.00;101728.06;5158442;28;20409;-74
2021/09/24 02:56:16;;;;;;;67.43;21.15;;;;;;;14.62;100.00;101724.38;5158335;28;20025;-73
2021/09/24 02:58:46;;;;;;;64.80;23.90;;;;;;;14.63;100.00;101735.00;5159578;28;20369;-73
2021/09/24 03:01:16;;;;;;;55.90;21.70;;;;;;;14.62;100.00;101736.00;5178721;28;20026;-73
2021/09/24 03:03:47;;;;;;;64.93;21.33;;;;;;;14.63;100.00;101732.28;5182411;28;20475;-73
2021/09/24 03:06:18;;;;;;;50.97;20.52;;;;;;;14.66;100.00;101726.56;5178535;28;20040;-73
2021/09/24 03:08:48;;;;;;;59.05;23.00;;;;;;;14.63;100.00;101726.91;5176422;28;20561;-72
2021/09/24 03:11:19;;;;;;;54.67;20.60;;;;;;;14.67;100.00;101725.53;5176305;28;20369;-73
2021/09/24 03:13:49;;;;;;;61.92;22.73;;;;;;;14.66;100.00;101728.38;5175203;28;20449;-73
2021/09/24 03:16:20;;;;;;;54.33;21.80;;;;;;;14.65;100.00;101727.56;5162784;28;20057;-73
2021/09/24 03:18:51;;;;;;;63.40;22.65;;;;;;;14.67;100.00;101722.00;5176869;28;20113;-73
2021/09/24 03:21:21;;;;;;;62.40;22.90;;;;;;;14.66;100.00;101729.25;5174015;28;20018;-73
2021/09/24 03:23:52;;;;;;;57.45;21.00;;;;;;;14.67;100.00;101716.59;5161960;28;20178;-74
2021/09/24 03:26:22;;;;;;;56.28;22.52;;;;;;;14.66;100.00;101723.00;5172081;28;20045;-73
2021/09/24 03:28:53;;;;;;;54.03;21.33;;;;;;;14.67;100.00;101730.09;5168696;28;20033;-73
2021/09/24 03:31:24;;;;;;;49.90;21.80;;;;;;;14.67;100.00;101720.13;5171933;28;20026;-73
2021/09/24 03:33:54;;;;;;;64.72;23.65;;;;;;;14.68;100.00;101720.97;5179662;28;20096;-73
2021/09/24 03:36:25;;;;;;;51.88;22.00;;;;;;;14.70;100.00;101719.78;5182647;28;20029;-72
2021/09/24 03:38:55;;;;;;;54.45;23.88;;;;;;;14.73;100.00;101732.13;5181849;28;20026;-72
2021/09/24 03:41:26;;;;;;;58.47;22.75;;;;;;;14.76;100.00;101723.69;5176855;28;20018;-73
2021/09/24 03:43:56;;;;;;;56.05;21.65;;;;;;;14.73;100.00;101721.31;5181849;28;20487;-73
2021/09/24 03:46:27;;;;;;;61.15;23.23;;;;;;;14.74;100.00;101718.44;5167646;28;20113;-73
2021/09/24 03:48:57;;;;;;;62.55;22.63;;;;;;;14.73;100.00;101715.91;5169953;28;20083;-74
2021/09/24 03:51:28;;;;;;;57.45;22.65;;;;;;;14.73;100.00;101715.91;5179250;28;20019;-73
2021/09/24 03:53:58;;;;;;;50.42;22.50;;;;;;;14.73;100.00;101715.91;5171320;28;20030;-73
2021/09/24 03:56:29;;;;;;;54.83;22.25;;;;;;;14.74;100.00;101715.72;5168591;28;20029;-74
2021/09/24 03:58:59;;;;;;;62.72;22.77;;;;;;;14.75;100.00;101717.41;5181576;28;20044;-73
2021/09/24 04:01:30;;;;;;;54.53;21.25;;;;;;;14.79;100.00;101714.38;5168221;28;20026;-73
2021/09/24 04:04:00;;;;;;;59.50;21.77;;;;;;;14.81;100.00;101712.31;5181802;28;20368;-72
2021/09/24 04:06:32;;;;;;;55.53;22.08;;;;;;;14.79;100.00;101719.78;5175637;28;20462;-72
2021/09/24 04:09:02;;;;;;;57.55;22.35;;;;;;;14.78;100.00;101721.63;5175844;28;20029;-72
2021/09/24 04:11:33;;;;;;;59.95;23.48;;;;;;;14.78;100.00;101718.94;5161557;28;20036;-73
2021/09/24 04:14:05;;;;;;;53.75;21.33;;;;;;;14.80;100.00;101718.75;5161080;28;20030;-72
2021/09/24 04:16:35;;;;;;;56.90;23.15;;;;;;;14.76;100.00;101716.41;5170034;28;20087;-73
2021/09/24 04:19:06;;;;;;;61.90;22.85;;;;;;;14.77;100.00;101719.94;5164941;28;20479;-73
2021/09/24 04:21:36;;;;;;;57.72;23.75;;;;;;;14.77;100.00;101715.38;5161208;28;20037;-72
2021/09/24 04:24:07;;;;;;;65.55;24.45;;;;;;;14.80;100.00;101716.03;5160452;28;20145;-72
2021/09/24 04:26:37;;;;;;;61.10;23.48;;;;;;;14.80;100.00;101718.75;5170747;28;20031;-72
2021/09/24 04:29:08;;;;;;;60.35;22.65;;;;;;;14.80;100.00;101721.44;5160387;28;20125;-73
2021/09/24 04:31:39;;;;;;;58.65;23.60;;;;;;;14.81;100.00;101729.41;5161040;28;20435;-73
2021/09/24 04:34:09;;;;;;;56.40;22.08;;;;;;;14.81;100.00;101721.31;5179793;28;20030;-73
2021/09/24 04:36:40;;;;;;;54.78;22.20;;;;;;;14.82;100.00;101724.84;5181022;28;20026;-73
2021/09/24 04:39:10;;;;;;;54.90;21.05;;;;;;;14.83;100.00;101721.97;5167740;28;20025;-73
2021/09/24 04:41:41;;;;;;;58.88;20.73;;;;;;;14.84;100.00;101725.50;5168930;28;20022;-73
2021/09/24 04:44:11;;;;;;;51.13;21.05;;;;;;;14.85;100.00;101719.91;5170925;28;20034;-72
2021/09/24 04:46:46;;;;;;;58.42;22.83;;;;;;;14.84;100.00;101722.78;5164580;28;20566;-72
2021/09/24 04:49:16;;;;;;;65.18;20.63;;;;;;;14.85;100.00;101721.78;5169220;28;20446;-72
2021/09/24 04:51:47;;;;;;;48.55;21.63;;;;;;;14.85;100.00;101717.22;5148641;28;20130;-72
2021/09/24 04:54:17;;;;;;;57.13;20.52;;;;;;;14.84;100.00;101728.19;5180756;28;20341;-72
2021/09/24 04:56:48;;;;;;;62.88;21.77;;;;;;;14.82;100.00;101730.25;5181339;28;20152;-72
2021/09/24 04:59:18;;;;;;;58.05;21.40;;;;;;;14.84;100.00;101731.75;5167008;28;20185;-73
2021/09/24 05:01:49;;;;;;;49.95;22.13;;;;;;;14.84;100.00;101736.31;5169625;28;20029;-72
2021/09/24 05:04:19;;;;;;;57.65;19.83;;;;;;;14.83;100.00;101724.66;5167706;28;20156;-71
2021/09/24 05:06:49;;;;;;;56.17;21.17;;;;;;;14.85;100.00;101719.06;5171518;28;20031;-71
2021/09/24 05:09:20;;;;;;;50.85;20.40;;;;;;;14.84;100.00;101723.63;5165159;28;20041;-71
2021/09/24 05:11:50;;;;;;;61.00;22.05;;;;;;;14.84;100.00;101725.50;5170568;28;20037;-71
2021/09/24 05:14:21;;;;;;;48.22;19.88;;;;;;;14.86;100.00;101737.84;5160183;28;20025;-71
2021/09/24 05:16:51;;;;;;;52.90;20.95;;;;;;;14.88;100.00;101724.13;5171357;28;20021;-71
2021/09/24 05:19:22;;;;;;;52.75;20.95;;;;;;;14.89;100.00;101733.94;5161705;28;20152;-71
2021/09/24 05:21:53;;;;;;;49.38;20.38;;;;;;;14.88;100.00;101735.78;5158986;28;20490;-71
2021/09/24 05:24:23;;;;;;;56.05;21.75;;;;;;;14.92;100.00;101731.72;5162569;28;20021;-71
2021/09/24 05:26:54;;;;;;;52.92;21.63;;;;;;;14.92;100.00;101723.63;5178781;28;20026;-71
2021/09/24 05:29:24;;;;;;;49.85;20.42;;;;;;;14.93;100.00;101722.59;5158241;28;20030;-71
2021/09/24 05:31:56;;;;;;;54.97;20.75;;;;;;;14.95;100.00;101725.97;5158284;28;20018;-71
2021/09/24 05:34:26;;;;;;;50.80;21.38;;;;;;;14.97;100.00;101720.41;5149530;28;20061;-71
2021/09/24 05:36:57;;;;;;;48.67;20.25;;;;;;;15.00;100.00;101722.75;5176319;28;20433;-71
2021/09/24 05:39:27;;;;;;;54.00;21.83;;;;;;;15.01;100.00;101716.34;5158485;28;20514;-71
2021/09/24 05:41:58;;;;;;;54.38;22.08;;;;;;;15.02;100.00;101715.31;5174768;28;20037;-70
2021/09/24 05:44:29;;;;;;;53.45;22.10;;;;;;;15.01;100.00;101714.47;5166186;28;20165;-71
2021/09/24 05:46:59;;;;;;;52.45;22.33;;;;;;;15.03;100.00;101717.84;5147105;28;20124;-71
2021/09/24 05:49:30;;;;;;;52.35;20.58;;;;;;;15.02;100.00;101713.47;5177723;28;20033;-71
2021/09/24 05:52:01;;;;;;;49.20;22.27;;;;;;;15.01;100.00;101713.66;5153554;28;20304;-71
2021/09/24 05:54:32;;;;;;;52.78;21.35;;;;;;;15.03;100.00;101719.69;5159914;28;20580;-71
2021/09/24 05:57:02;;;;;;;60.80;21.50;;;;;;;15.05;100.00;101722.22;5169404;28;20030;-69
2021/09/24 05:59:33;;;;;;;52.28;21.58;;;;;;;15.06;100.00;101711.25;5173768;28;20142;-70
2021/09/24 06:02:04;;;;;;;51.15;22.10;;;;;;;15.09;100.00;101705.47;5175208;28;20391;-69
2021/09/24 06:04:35;;;;;;;49.88;23.30;;;;;;;15.10;100.00;101709.88;5165840;28;20431;-71
2021/09/24 06:07:06;;;;;;;49.65;22.10;;;;;;;15.10;100.00;101699.06;5165951;28;20373;-71
2021/09/24 06:09:36;;;;;;;50.65;21.33;;;;;;;15.12;100.00;101705.16;5164462;28;20116;-71
2021/09/24 06:12:07;;;;;;;54.42;21.73;;;;;;;15.15;100.00;101707.47;5164966;28;20022;-71
2021/09/24 06:14:37;;;;;;;50.90;21.85;;;;;;;15.18;100.00;101712.53;5158152;28;20026;-71
2021/09/24 06:17:11;;;;;;;55.65;22.42;;;;;;;15.15;100.00;101707.47;5171307;28;20048;-71
2021/09/24 06:19:42;;;;;;;52.17;23.45;;;;;;;15.25;100.00;101705.41;5169803;28;20030;-71
2021/09/24 06:22:12;;;;;;;57.78;23.05;;;;;;;15.37;100.00;101708.59;5157586;28;20058;-71
2021/09/24 06:24:45;;;;;;;45.75;20.00;;;;;;;15.54;100.00;101712.03;5167140;28;20117;-71
2021/09/24 06:27:15;;;;;;;49.40;21.90;;;;;;;15.58;100.00;101707.97;5147227;28;20026;-70
2021/09/24 06:29:49;;;;;;;40.60;19.70;;;;;;;15.70;100.00;101713.81;5177527;28;20435;-69
2021/09/24 06:32:21;;;;;;;46.72;20.45;;;;;;;15.69;100.00;101714.84;5163862;28;20032;-69
2021/09/24 06:34:51;;;;;;;41.63;19.52;;;;;;;15.69;100.00;101706.72;5165780;28;20057;-69
2021/09/24 06:37:22;;;;;;;45.38;20.10;;;;;;;15.62;100.00;101703.03;5170912;28;20502;-69
2021/09/24 06:39:52;;;;;;;42.67;20.00;;;;;;;15.61;100.00;101701.31;5170223;28;20116;-69
2021/09/24 06:42:23;;;;;;;43.47;18.60;;;;;;;15.62;100.00;101703.88;5173282;28;20072;-69
2021/09/24 06:44:53;;;;;;;44.33;19.42;;;;;;;15.58;100.00;101701.72;5172585;28;20045;-69
2021/09/24 06:47:25;;;;;;;38.45;19.08;;;;;;;15.67;100.00;101704.22;5164395;28;20539;-69
2021/09/24 06:49:55;;;;;;;45.92;17.80;;;;;;;15.76;100.00;101697.72;5154201;28;20029;-69
2021/09/24 06:52:26;;;;;;;35.25;18.00;;;;;;;15.89;100.00;101701.69;5146687;28;20368;-69
2021/09/24 06:54:57;;;;;;;36.80;17.73;;;;;;;16.12;100.00;101705.25;5165846;28;20061;-69
2021/09/24 06:57:27;;;;;;;37.45;16.92;;;;;;;16.31;100.00;101706.56;5139866;28;20031;-70
2021/09/24 06:59:58;;;;;;;39.92;17.02;;;;;;;16.38;100.00;101699.41;5164189;28;20034;-70
2021/09/24 07:02:28;;;;;;;37.33;16.52;;;;;;;16.27;100.00;101714.25;5145277;28;20133;-70
2021/09/24 07:04:59;;;;;;;36.55;17.40;;;;;;;16.19;100.00;101708.06;5167513;28;20033;-70
2021/09/24 07:07:29;;;;;;;37.08;16.85;;;;;;;16.20;100.00;101710.56;5168962;28;20033;-70
2021/09/24 07:10:00;;;;;;;42.65;17.20;;;;;;;16.21;100.00;101716.81;5169870;28;20053;-70
2021/09/24 07:12:31;;;;;;;32.60;14.77;;;;;;;16.26;100.00;101711.69;5168209;28;20026;-70
2021/09/24 07:15:02;;;;;;;37.75;15.75;;;;;;;16.23;100.00;101703.97;5164198;28;20119;-70
2021/09/24 07:17:33;;;;;;;32.63;15.75;;;;;;;16.28;100.00;101704.25;5164652;28;20027;-70
2021/09/24 07:20:05;;;;;;;32.50;16.83;;;;;;;16.31;100.00;101712.00;5151718;28;20030;-70
2021/09/24 07:22:36;;;;;;;40.45;15.85;;;;;;;16.28;100.00;101715.94;5164833;28;20023;-70
2021/09/24 07:25:07;;;;;;;32.35;14.80;;;;;;;16.34;100.00;101710.81;5171573;28;20026;-70
2021/09/24 07:27:38;;;;;;;25.27;14.57;;;;;;;16.38;100.00;101715.66;5149561;28;20492;-70
2021/09/24 07:30:09;;;;;;;29.67;13.27;;;;;;;16.41;100.00;101709.03;5149773;28;20049;-70
2021/09/24 07:32:41;;;;;;;36.80;15.48;;;;;;;16.42;100.00;101716.16;5150435;28;20022;-70
2021/09/24 07:35:12;;;;;;;26.23;13.73;;;;;;;16.32;100.00;101724.53;5172174;28;20351;-70
2021/09/24 07:37:42;;;;;;;32.50;14.93;;;;;;;16.36;100.00;101716.84;5163371;28;20026;-70
2021/09/24 07:40:13;;;;;;;34.97;16.02;;;;;;;16.39;100.00;101720.06;5164195;28;20096;-70
2021/09/24 07:42:43;;;;;;;35.10;15.02;;;;;;;16.42;100.00;101729.69;5172461;28;20030;-70
2021/09/24 07:45:14;;;;;;;32.55;13.93;;;;;;;16.43;100.00;101723.25;5178629;28;20032;-70
2021/09/24 07:47:44;;;;;;;30.05;14.10;;;;;;;16.41;100.00;101728.81;5153842;28;20109;-70
2021/09/24 07:50:15;;;;;;;38.00;14.77;;;;;;;16.37;100.00;101724.00;5160537;28;20022;-70
2021/09/24 07:52:46;;;;;;;32.97;14.75;;;;;;;16.40;100.00;101724.44;5171318;28;20483;-70
2021/09/24 07:55:16;;;;;;;30.52;13.65;;;;;;;16.49;100.00;101719.78;5158310;28;20038;-70
2021/09/24 07:57:51;;;;;;;30.50;14.00;;;;;;;16.62;100.00;101717.31;5171588;28;20471;-70
2021/09/24 08:00:24;;;;;;;29.65;12.60;;;;;;;16.76;100.00;101726.50;5180358;28;20030;-70
2021/09/24 08:02:55;;;;;;;29.63;13.90;;;;;;;16.85;100.00;101721.84;5146360;28;20029;-70
2021/09/24 08:05:26;;;;;;;36.30;13.38;;;;;;;16.92;100.00;101725.47;5172758;28;20028;-71
2021/09/24 08:07:57;;;;;;;27.42;12.35;;;;;;;16.94;100.00;101729.69;5166325;28;20050;-70
2021/09/24 08:10:29;;;;;;;29.83;12.93;;;;;;;17.03;100.00;101731.28;5170934;28;20479;-70
2021/09/24 08:12:59;;;;;;;27.17;11.52;;;;;;;16.99;100.00;101729.97;5142556;28;20084;-70
2021/09/24 08:15:30;;;;;;;28.77;12.50;;;;;;;16.87;100.00;101733.31;5153060;28;20065;-70
2021/09/24 08:18:01;;;;;;;26.45;11.70;;;;;;;16.94;100.00;101728.84;5179836;28;20372;-71
2021/09/24 08:20:31;;;;;;;25.25;11.95;;;;;;;17.03;100.00;101725.03;5179732;28;20030;-70
2021/09/24 08:23:02;;;;;;;26.10;11.40;;;;;;;17.09;100.00;101725.09;5179892;28;20026;-70
2021/09/24 08:25:33;;;;;;;31.77;11.00;;;;;;;17.20;100.00;101717.53;5167352;28;20042;-70
2021/09/24 08:28:04;;;;;;;21.35;10.73;;;;;;;17.35;100.00;101724.59;5179830;28;20101;-70
2021/09/24 08:30:35;;;;;;;42.78;10.32;;;;;;;17.44;100.00;101728.06;5179960;28;20080;-70
2021/09/24 08:33:05;;;;;;;22.90;10.48;;;;;;;17.39;100.00;101724.22;5179565;28;20497;-70
2021/09/24 08:35:36;;;;;;;21.60;9.73;;;;;;;17.51;100.00;101728.97;5166720;28;20034;-70
2021/09/24 08:38:06;;;;;;;26.80;9.55;;;;;;;17.47;100.00;101727.69;5179798;28;20061;-70
2021/09/24 08:40:37;;;;;;;20.98;9.95;;;;;;;17.52;100.00;101736.09;5149226;28;20026;-70
2021/09/24 08:43:10;;;;;;;21.15;9.50;;;;;;;17.58;100.00;101734.50;5179210;28;20025;-70
2021/09/24 08:45:42;;;;;;;20.48;9.20;;;;;;;17.59;100.00;101734.28;5174173;28;20256;-71
2021/09/24 08:48:13;;;;;;;22.88;9.27;;;;;;;17.44;100.00;101738.06;5171942;28;20042;-70
2021/09/24 08:50:45;;;;;;;21.60;8.70;;;;;;;17.43;100.00;101739.09;5159530;28;20143;-71
2021/09/24 08:53:16;;;;;;;14.65;7.88;;;;;;;17.44;100.00;101738.91;5158898;28;20036;-71
2021/09/24 08:55:46;;;;;;;26.25;9.00;;;;;;;17.47;100.00;101737.66;5141791;28;20022;-70
2021/09/24 08:58:17;;;;;;;22.50;9.40;;;;;;;17.48;100.00;101734.78;5174393;28;20494;-71
2021/09/24 09:00:48;;;;;;;14.38;7.80;;;;;;;17.55;100.00;101740.28;5179211;28;20048;-71
2021/09/24 09:03:18;;;;;;;21.42;8.90;;;;;;;17.58;100.00;101737.19;5162749;28;20022;-71
2021/09/24 09:05:56;;;;;;;25.48;9.55;;;;;;;17.59;100.00;101741.59;5170232;28;20030;-70
2021/09/24 09:08:31;;;;;;;22.58;8.45;;;;;;;17.63;100.00;101737.47;5178933;28;20038;-71
2021/09/24 09:11:07;;;;;;;15.48;8.15;;;;;;;17.59;100.00;101733.44;5179305;28;20454;-71
2021/09/24 09:13:40;;;;;;;23.85;9.23;;;;;;;17.61;100.00;101729.50;5179151;28;20076;-71
2021/09/24 09:16:16;;;;;;;20.10;9.20;;;;;;;17.62;100.00;101733.06;5179327;28;20132;-71
2021/09/24 09:18:48;;;;;;;19.42;9.02;;;;;;;17.66;100.00;101730.81;5178484;28;20446;-71
2021/09/24 09:21:22;;;;;;;24.98;10.40;;;;;;;17.60;100.00;101737.84;5173192;28;20056;-71
2021/09/24 09:23:54;;;;;;;17.40;8.60;;;;;;;17.69;100.00;101735.84;5159062;28;20126;-70
2021/09/24 09:26:26;;;;;;;23.40;9.65;;;;;;;17.82;100.00;101734.16;5179431;28;20450;-71
2021/09/24 09:29:24;;;;;;;20.50;8.98;;;;;;;17.93;100.00;101731.97;5163631;28;20022;-71
2021/09/24 09:32:00;;;;;;;19.20;9.80;;;;;;;17.97;100.00;101733.25;5171645;28;20030;-71
2021/09/24 09:34:34;;;;;;;14.90;8.13;;;;;;;18.14;100.00;101728.41;5178636;28;20124;-71
2021/09/24 09:37:17;;;;;;;19.50;9.27;;;;;;;18.17;100.00;101730.72;5164008;28;20231;-71
2021/09/24 09:40:02;;;;;;;20.63;9.18;;;;;;;18.38;100.00;101733.44;5157510;28;20089;-71
2021/09/24 09:42:36;;;;;;;21.02;8.82;;;;;;;18.47;100.00;101724.09;5177749;28;20030;-71
2021/09/24 09:45:10;;;;;;;17.02;8.80;;;;;;;18.41;100.00;101724.88;5160940;28;20084;-71
2021/09/24 09:47:43;;;;;;;19.60;9.38;;;;;;;18.57;100.00;101724.59;5170347;28;20058;-71
2021/09/24 09:50:20;;;;;;;20.30;8.70;;;;;;;18.62;100.00;101737.56;5173604;28;20033;-71
2021/09/24 09:52:54;;;;;;;16.92;7.43;;;;;;;18.79;100.00;101728.13;5167430;28;20046;-71
2021/09/24 09:55:27;;;;;;;22.23;8.55;;;;;;;18.91;100.00;101727.56;5163152;28;20075;-71
2021/09/24 09:58:00;;;;;;;19.10;8.32;;;;;;;18.99;100.00;101728.25;5165681;28;20026;-71
2021/09/24 10:00:32;;;;;;;19.25;8.95;;;;;;;19.12;100.00;101725.59;5164418;28;20153;-71
2021/09/24 10:03:06;;;;;;;15.80;6.82;;;;;;;19.34;100.00;101728.22;5164851;28;20172;-71
2021/09/24 10:05:41;;;;;;;20.33;6.88;;;;;;;19.53;100.00;101727.47;5169277;28;20018;-71
2021/09/24 10:08:27;;;;;;;15.50;7.88;;;;;;;19.58;100.00;101722.25;5149341;28;20107;-71
2021/09/24 10:11:13;;;;;;;21.20;6.88;;;;;;;19.84;100.00;101721.50;5177417;28;20034;-71
2021/09/24 10:13:52;;;;;;;18.08;7.15;;;;;;;19.91;100.00;101722.34;5177791;28;20036;-71
2021/09/24 10:16:25;;;;;;;18.45;8.00;;;;;;;20.18;100.00;101719.66;5160609;28;20026;-71
2021/09/24 10:18:56;;;;;;;13.18;7.00;;;;;;;20.37;100.00;101716.09;5157227;28;20032;-71
2021/09/24 10:21:27;;;;;;;22.25;7.15;;;;;;;20.25;100.00;101725.13;5157715;28;20492;-71
2021/09/24 10:23:58;;;;;;;13.65;6.35;;;;;;;20.18;100.00;101708.75;5158028;28;20245;-71
2021/09/24 10:26:33;;;;;;;12.77;6.00;;;;;;;20.03;100.00;101713.56;5158161;28;20026;-71
2021/09/24 10:29:08;;;;;;;17.55;7.03;;;;;;;19.90;100.00;101712.50;5157140;28;20270;-71
2021/09/24 10:31:47;;;;;;;11.80;6.90;;;;;;;20.05;100.00;101706.03;5158094;28;20054;-71
2021/09/24 10:34:20;;;;;;;15.93;6.85;;;;;;;20.05;100.00;101706.03;5175932;28;20037;-71
2021/09/24 10:36:54;;;;;;;12.85;5.47;;;;;;;20.00;100.00;101709.38;5165395;28;20030;-72
2021/09/24 10:39:30;;;;;;;12.80;5.68;;;;;;;20.03;100.00;101703.53;5164402;28;20072;-71
2021/09/24 10:42:22;;;;;;;11.77;5.40;;;;;;;20.25;100.00;101697.88;5177862;28;20360;-71
2021/09/24 10:45:16;;;;;;;11.05;5.43;;;;;;;20.23;100.00;101703.53;5165508;28;20030;-72
2021/09/24 10:48:01;;;;;;;11.35;5.72;;;;;;;20.07;100.00;101702.03;5157644;28;20117;-72
2021/09/24 10:50:32;;;;;;;8.73;5.27;;;;;;;20.01;100.00;101694.72;5165525;28;20466;-71
2021/09/24 10:53:09;;;;;;;13.05;5.32;;;;;;;20.29;100.00;101691.78;5157623;28;20285;-72
2021/09/24 10:56:09;;;;;;;11.75;5.55;;;;;;;20.54;100.00;101686.56;5164991;28;20514;-72
2021/09/24 10:58:42;;;;;;;12.85;5.10;;;;;;;20.56;100.00;101684.47;5158513;28;20026;-72
2021/09/24 11:01:31;;;;;;;12.88;4.75;;;;;;;20.49;100.00;101678.19;5170330;28;20068;-72
2021/09/24 11:04:10;;;;;;;6.30;4.10;;;;;;;20.46;100.00;101680.47;5160280;28;20026;-72
2021/09/24 11:06:44;;;;;;;10.90;4.07;;;;;;;20.68;100.00;101679.19;5164424;28;20477;-72
2021/09/24 11:09:17;;;;;;;10.35;4.32;;;;;;;21.15;100.00;101671.72;5176867;28;20079;-72
2021/09/24 11:12:01;;;;;;;13.43;4.57;;;;;;;21.21;100.00;101671.69;5177225;28;20493;-72
2021/09/24 11:14:35;;;;;;;13.18;4.43;;;;;;;21.23;100.00;101666.00;5161577;28;20022;-71
2021/09/24 11:17:08;;;;;;;8.73;4.32;;;;;;;21.54;100.00;101658.97;5134146;28;20032;-72
2021/09/24 11:19:47;;;;;;;7.35;4.45;;;;;;;22.11;100.00;101662.56;5164517;28;20056;-73
2021/09/24 11:22:24;;;;;;;11.27;4.35;;;;;;;22.20;100.00;101666.69;5169166;28;20317;-73
2021/09/24 11:25:00;;;;;;;10.02;4.35;;;;;;;22.41;100.00;101658.09;5168759;28;20037;-73
2021/09/24 11:27:34;;;;;;;7.93;4.13;;;;;;;22.43;100.00;101660.59;5150737;28;20037;-73